Time;durP1;ratioP1;P1;durP2;ratioP2;P2;SDS_P1;SDS_P2;PMS_P1;PMS_P2;Temp;Humidity;BMP_temperature;BMP_pressure;BME280_temperature;BME280_humidity;BME280_pressure;Samples;Min_cycle;Max_cycle;Signal;HPM_P1;HPM_P2
2023/07/29 00:02:17;;;;;;;5.30;1.30;;;18.70;99.90;;;;;;4988494;28;20452;-70
2023/07/29 00:04:43;;;;;;;4.70;1.30;;;18.70;99.90;;;;;;4989458;28;20478;-70
2023/07/29 00:07:08;;;;;;;6.77;1.40;;;18.70;99.90;;;;;;4987880;28;20427;-70
2023/07/29 00:09:34;;;;;;;5.70;1.30;;;18.80;99.90;;;;;;4989431;28;20456;-70
2023/07/29 00:11:59;;;;;;;4.85;1.40;;;18.90;99.90;;;;;;4986231;28;20388;-70
2023/07/29 00:14:25;;;;;;;5.30;1.50;;;18.90;99.90;;;;;;4985983;28;20981;-70
2023/07/29 00:16:51;;;;;;;4.80;1.27;;;19.00;99.90;;;;;;4989405;28;20470;-70
2023/07/29 00:19:16;;;;;;;4.53;1.63;;;19.20;99.90;;;;;;4989124;28;20402;-70
2023/07/29 00:21:42;;;;;;;4.80;1.50;;;19.30;99.90;;;;;;4987142;28;20774;-70
2023/07/29 00:24:07;;;;;;;4.77;1.30;;;19.30;99.90;;;;;;4983226;28;20414;-70
2023/07/29 00:26:33;;;;;;;4.50;1.20;;;19.20;99.90;;;;;;4989621;28;20422;-70
2023/07/29 00:28:58;;;;;;;4.23;1.00;;;19.10;99.90;;;;;;4989875;28;20822;-70
2023/07/29 00:31:24;;;;;;;5.30;1.33;;;19.00;99.90;;;;;;4989453;28;20382;-70
2023/07/29 00:33:49;;;;;;;5.00;1.48;;;18.90;99.90;;;;;;4989450;28;20417;-69
2023/07/29 00:36:15;;;;;;;4.90;1.52;;;18.90;99.90;;;;;;4988553;28;20403;-69
2023/07/29 00:38:41;;;;;;;5.30;1.90;;;19.00;99.90;;;;;;4989338;28;20440;-69
2023/07/29 00:41:07;;;;;;;4.60;1.30;;;19.10;99.90;;;;;;4989282;28;20810;-70
2023/07/29 00:43:33;;;;;;;7.30;1.35;;;19.10;99.90;;;;;;4989573;28;20397;-70
2023/07/29 00:46:00;;;;;;;5.53;1.40;;;19.20;99.90;;;;;;4990380;28;20395;-70
2023/07/29 00:48:26;;;;;;;5.82;1.58;;;19.20;99.90;;;;;;4976686;28;20423;-70
2023/07/29 00:50:52;;;;;;;4.30;1.20;;;19.20;99.90;;;;;;4981904;28;20787;-70
2023/07/29 00:53:17;;;;;;;4.65;1.13;;;19.20;99.90;;;;;;4969681;28;20407;-70
2023/07/29 00:55:43;;;;;;;4.87;1.27;;;19.20;99.90;;;;;;4969984;28;20475;-70
2023/07/29 00:58:10;;;;;;;5.00;1.40;;;19.30;99.90;;;;;;4969578;28;20755;-70
2023/07/29 01:00:36;;;;;;;5.00;1.40;;;19.30;99.90;;;;;;4969906;28;20891;-70
2023/07/29 01:03:02;;;;;;;4.97;1.50;;;19.40;99.90;;;;;;4984343;28;20427;-70
2023/07/29 01:05:42;;;;;;;4.70;1.30;;;19.40;99.90;;;;;;4970228;28;20427;-70
2023/07/29 01:08:26;;;;;;;6.50;1.50;;;19.40;99.90;;;;;;4969270;28;20428;-70
2023/07/29 01:11:00;;;;;;;8.00;1.60;;;19.40;99.90;;;;;;4988549;28;20417;-70
2023/07/29 01:13:37;;;;;;;4.82;1.20;;;19.40;99.90;;;;;;4992533;28;20478;-70
2023/07/29 01:16:15;;;;;;;4.80;1.25;;;19.30;99.90;;;;;;4993148;28;20410;-70
2023/07/29 01:18:43;;;;;;;4.68;1.60;;;19.30;99.90;;;;;;4993335;28;20387;-70
2023/07/29 01:21:10;;;;;;;4.82;1.20;;;19.50;99.90;;;;;;4992903;28;20422;-70
2023/07/29 01:23:37;;;;;;;4.90;1.20;;;19.60;99.90;;;;;;4992208;28;20398;-70
2023/07/29 01:26:03;;;;;;;5.30;1.60;;;19.50;99.90;;;;;;4991606;28;20422;-70
2023/07/29 01:28:30;;;;;;;4.85;1.20;;;19.40;99.90;;;;;;4993505;28;20484;-70
2023/07/29 01:31:02;;;;;;;5.30;1.40;;;19.40;99.90;;;;;;4992973;28;20409;-70
2023/07/29 01:33:34;;;;;;;5.50;1.70;;;19.30;99.90;;;;;;4993016;28;20390;-70
2023/07/29 01:36:07;;;;;;;4.67;1.43;;;19.20;99.90;;;;;;4992656;28;20516;-70
2023/07/29 01:38:36;;;;;;;5.40;1.50;;;19.00;99.90;;;;;;4992125;28;20402;-70
2023/07/29 01:41:02;;;;;;;5.15;1.52;;;19.00;99.90;;;;;;4992284;28;20422;-70
2023/07/29 01:43:32;;;;;;;5.22;1.50;;;19.10;99.90;;;;;;4992917;28;20394;-70
2023/07/29 01:45:57;;;;;;;5.00;1.40;;;19.10;99.90;;;;;;4992428;28;20833;-70
2023/07/29 01:48:23;;;;;;;6.53;1.33;;;19.10;99.90;;;;;;4989958;28;20477;-70
2023/07/29 01:50:49;;;;;;;5.30;1.63;;;19.20;99.90;;;;;;4991983;28;20398;-70
2023/07/29 01:53:14;;;;;;;4.78;1.20;;;19.30;99.90;;;;;;4991705;28;20402;-70
2023/07/29 01:55:41;;;;;;;5.85;1.27;;;19.40;99.90;;;;;;4991954;28;20419;-70
2023/07/29 01:58:07;;;;;;;4.80;1.50;;;19.40;99.90;;;;;;4992237;28;20966;-70
2023/07/29 02:00:32;;;;;;;7.43;1.60;;;19.30;99.90;;;;;;4992271;28;20449;-70
2023/07/29 02:02:58;;;;;;;4.67;1.50;;;19.30;99.90;;;;;;4992718;28;20772;-70
2023/07/29 02:05:23;;;;;;;5.33;1.70;;;19.20;99.90;;;;;;4992107;28;20457;-70
2023/07/29 02:07:49;;;;;;;6.07;1.60;;;19.10;99.90;;;;;;4991297;28;20426;-70
2023/07/29 02:10:14;;;;;;;6.70;1.67;;;19.00;99.90;;;;;;4974853;28;20398;-70
2023/07/29 02:12:40;;;;;;;6.60;2.00;;;18.90;99.90;;;;;;4991267;28;20418;-70
2023/07/29 02:15:06;;;;;;;5.22;1.67;;;19.00;99.90;;;;;;4991890;28;20758;-70
2023/07/29 02:17:31;;;;;;;7.80;1.77;;;19.00;99.90;;;;;;4991639;28;20952;-70
2023/07/29 02:19:57;;;;;;;8.15;2.03;;;19.00;99.90;;;;;;4992132;28;20394;-70
2023/07/29 02:22:24;;;;;;;4.93;1.40;;;19.10;99.90;;;;;;4990904;28;20940;-70
2023/07/29 02:24:49;;;;;;;6.80;1.60;;;19.10;99.90;;;;;;4990699;28;20487;-70
2023/07/29 02:27:15;;;;;;;6.10;1.80;;;19.10;99.90;;;;;;4990900;28;20426;-70
2023/07/29 02:29:40;;;;;;;5.43;1.43;;;19.20;99.90;;;;;;4990948;28;20905;-70
2023/07/29 02:32:06;;;;;;;5.70;1.50;;;19.20;99.90;;;;;;4990467;28;20468;-70
2023/07/29 02:34:32;;;;;;;5.10;1.40;;;19.20;99.90;;;;;;4991467;28;20394;-70
2023/07/29 02:36:57;;;;;;;4.20;1.20;;;19.10;99.90;;;;;;4992019;28;20386;-70
2023/07/29 02:39:23;;;;;;;4.50;1.20;;;19.10;99.90;;;;;;4990085;28;20401;-69
2023/07/29 02:41:49;;;;;;;4.30;1.13;;;19.00;99.90;;;;;;4991538;28;20426;-69
2023/07/29 02:44:15;;;;;;;5.13;1.20;;;19.00;99.90;;;;;;4991171;28;20507;-70
2023/07/29 02:46:41;;;;;;;5.25;1.75;;;19.00;99.90;;;;;;4990815;28;20420;-69
2023/07/29 02:49:06;;;;;;;5.40;1.60;;;19.00;99.90;;;;;;4991214;28;20390;-70
2023/07/29 02:51:32;;;;;;;5.40;1.63;;;19.00;99.90;;;;;;4991124;28;20394;-70
2023/07/29 02:53:57;;;;;;;6.50;1.50;;;19.10;99.90;;;;;;4991301;28;20912;-70
2023/07/29 02:56:23;;;;;;;4.57;1.13;;;19.10;99.90;;;;;;4991225;28;20422;-70
2023/07/29 02:58:51;;;;;;;4.60;1.25;;;19.10;99.90;;;;;;4991477;28;20730;-70
2023/07/29 03:01:16;;;;;;;5.30;1.30;;;19.20;99.90;;;;;;4992545;28;20473;-70
2023/07/29 03:03:42;;;;;;;4.50;1.20;;;19.20;99.90;;;;;;4997089;28;20521;-70
2023/07/29 03:06:09;;;;;;;5.10;1.37;;;19.20;99.90;;;;;;4997594;28;20447;-70
2023/07/29 03:08:36;;;;;;;5.25;1.20;;;19.10;99.90;;;;;;4982070;28;20436;-69
2023/07/29 03:11:07;;;;;;;4.88;1.30;;;19.00;99.90;;;;;;4978586;28;20396;-69
2023/07/29 03:13:33;;;;;;;6.63;1.60;;;18.90;99.90;;;;;;4976020;28;20450;-69
2023/07/29 03:16:14;;;;;;;4.60;1.40;;;18.90;99.90;;;;;;4975354;28;20516;-69
2023/07/29 03:18:41;;;;;;;5.00;1.10;;;18.80;99.90;;;;;;4984530;28;20418;-69
2023/07/29 03:21:06;;;;;;;5.00;1.23;;;18.90;99.90;;;;;;4996539;28;20430;-69
2023/07/29 03:23:33;;;;;;;4.88;1.55;;;18.80;99.90;;;;;;4997569;28;20409;-70
2023/07/29 03:25:59;;;;;;;4.40;1.20;;;18.70;99.90;;;;;;5000089;28;20438;-69
2023/07/29 03:28:29;;;;;;;9.18;1.40;;;18.60;99.90;;;;;;5001133;28;20436;-69
2023/07/29 03:30:56;;;;;;;5.20;1.60;;;18.70;99.90;;;;;;4998044;28;20466;-69
2023/07/29 03:33:22;;;;;;;4.87;1.47;;;18.70;99.90;;;;;;4997134;28;20444;-70
2023/07/29 03:35:47;;;;;;;9.40;1.67;;;18.80;99.90;;;;;;4993840;28;20422;-70
2023/07/29 03:38:13;;;;;;;4.90;1.40;;;18.80;99.90;;;;;;4994545;28;20751;-70
2023/07/29 03:40:39;;;;;;;5.20;1.50;;;18.90;99.90;;;;;;4994345;28;20391;-70
2023/07/29 03:43:05;;;;;;;4.90;1.30;;;18.90;99.90;;;;;;4992584;28;20898;-70
2023/07/29 03:45:31;;;;;;;5.17;1.50;;;18.90;99.90;;;;;;4992582;28;20390;-70
2023/07/29 03:47:56;;;;;;;4.90;1.60;;;19.00;99.90;;;;;;4992846;28;20449;-69
2023/07/29 03:50:22;;;;;;;4.50;1.20;;;18.90;99.90;;;;;;4990824;28;20418;-69
2023/07/29 03:52:48;;;;;;;4.80;1.33;;;19.00;99.90;;;;;;4989436;28;20462;-69
2023/07/29 03:55:13;;;;;;;7.25;1.60;;;19.00;99.90;;;;;;4990970;28;20397;-70
2023/07/29 03:57:39;;;;;;;4.90;1.30;;;19.10;99.90;;;;;;4990456;28;20829;-70
2023/07/29 04:00:05;;;;;;;5.50;1.30;;;19.00;99.90;;;;;;4990537;28;20888;-70
2023/07/29 04:02:31;;;;;;;5.80;1.67;;;19.10;99.90;;;;;;4990932;28;20390;-70
2023/07/29 04:04:58;;;;;;;7.10;1.97;;;19.10;99.90;;;;;;4990464;28;20399;-70
2023/07/29 04:07:23;;;;;;;5.60;1.57;;;19.10;99.90;;;;;;4970489;28;20983;-70
2023/07/29 04:09:49;;;;;;;4.97;1.38;;;19.10;99.90;;;;;;4970171;28;20411;-70
2023/07/29 04:12:15;;;;;;;5.93;1.80;;;19.00;99.90;;;;;;4970890;28;20380;-70
2023/07/29 04:14:41;;;;;;;4.90;1.30;;;19.00;99.90;;;;;;4969165;28;20415;-70
2023/07/29 04:17:07;;;;;;;5.88;1.60;;;19.00;99.90;;;;;;4970507;28;20396;-69
2023/07/29 04:19:32;;;;;;;5.20;1.40;;;18.90;99.90;;;;;;4970458;28;20402;-69
2023/07/29 04:21:58;;;;;;;5.55;1.83;;;18.90;99.90;;;;;;4990312;28;20497;-69
2023/07/29 04:24:24;;;;;;;4.70;1.50;;;18.90;99.90;;;;;;4989564;28;20489;-69
2023/07/29 04:26:49;;;;;;;7.67;1.70;;;18.80;99.90;;;;;;4988368;28;20992;-69
2023/07/29 04:29:15;;;;;;;5.70;2.00;;;18.80;99.90;;;;;;4989117;28;20410;-69
2023/07/29 04:31:40;;;;;;;5.20;1.50;;;18.80;99.90;;;;;;4989773;28;20418;-69
2023/07/29 04:34:06;;;;;;;8.93;1.70;;;18.90;99.90;;;;;;4989428;28;20409;-69
2023/07/29 04:36:31;;;;;;;5.00;1.50;;;18.90;99.90;;;;;;4988267;28;20422;-69
2023/07/29 04:38:57;;;;;;;5.80;2.03;;;18.90;99.90;;;;;;4989735;28;20478;-69
2023/07/29 04:41:22;;;;;;;5.57;1.73;;;18.80;99.90;;;;;;4989279;28;20444;-69
2023/07/29 04:43:49;;;;;;;5.27;1.53;;;18.80;99.90;;;;;;4989504;28;20441;-69
2023/07/29 04:46:15;;;;;;;5.40;1.60;;;18.70;99.90;;;;;;4989896;28;20397;-70
2023/07/29 04:48:40;;;;;;;5.28;1.50;;;18.70;99.90;;;;;;4993391;28;20489;-70
2023/07/29 04:51:06;;;;;;;5.30;1.70;;;18.70;99.90;;;;;;4992596;28;20418;-70
2023/07/29 04:53:31;;;;;;;5.30;1.40;;;18.70;99.90;;;;;;4992685;28;20395;-70
2023/07/29 04:55:57;;;;;;;5.50;1.80;;;18.70;99.90;;;;;;4993550;28;20463;-70
2023/07/29 04:58:22;;;;;;;5.10;1.63;;;18.60;99.90;;;;;;4992150;28;20410;-69
2023/07/29 05:00:48;;;;;;;6.60;1.60;;;18.50;99.90;;;;;;4991823;28;20424;-69
2023/07/29 05:03:13;;;;;;;6.00;1.70;;;18.40;99.90;;;;;;4993314;28;20394;-69
2023/07/29 05:05:39;;;;;;;4.80;1.40;;;18.50;99.90;;;;;;4993287;28;20963;-69
2023/07/29 05:08:04;;;;;;;5.60;1.60;;;18.50;99.90;;;;;;4991013;28;20441;-69
2023/07/29 05:10:30;;;;;;;5.25;1.70;;;18.60;99.90;;;;;;4993535;28;20446;-69
2023/07/29 05:12:55;;;;;;;5.10;1.60;;;18.60;99.90;;;;;;4975571;28;20457;-69
2023/07/29 05:15:24;;;;;;;5.63;1.70;;;18.70;99.90;;;;;;4988596;28;21000;-69
2023/07/29 05:17:49;;;;;;;4.93;1.40;;;18.70;99.90;;;;;;4992788;28;20406;-70
2023/07/29 05:20:15;;;;;;;5.20;1.50;;;18.90;99.90;;;;;;4992662;28;20398;-70
2023/07/29 05:22:40;;;;;;;6.75;2.00;;;19.00;99.90;;;;;;4991535;28;20390;-69
2023/07/29 05:25:06;;;;;;;6.00;1.97;;;19.10;99.90;;;;;;4977884;28;20430;-69
2023/07/29 05:27:32;;;;;;;6.82;1.80;;;19.20;99.90;;;;;;4992776;28;20789;-70
2023/07/29 05:29:58;;;;;;;7.73;2.17;;;19.30;99.90;;;;;;4993321;28;20460;-70
2023/07/29 05:32:23;;;;;;;4.90;1.70;;;19.40;99.90;;;;;;4993049;28;20398;-70
2023/07/29 05:34:49;;;;;;;6.07;1.43;;;19.60;99.90;;;;;;4993232;28;20441;-70
2023/07/29 05:37:14;;;;;;;5.60;1.57;;;19.70;99.90;;;;;;4992922;28;20398;-70
2023/07/29 05:39:40;;;;;;;7.70;1.70;;;19.80;99.90;;;;;;4991157;28;20801;-70
2023/07/29 05:42:06;;;;;;;5.57;1.80;;;19.90;99.90;;;;;;4992569;28;20406;-70
2023/07/29 05:44:31;;;;;;;8.45;1.80;;;20.00;99.90;;;;;;4992830;28;20525;-70
2023/07/29 05:46:57;;;;;;;5.90;1.58;;;20.20;99.90;;;;;;4992498;28;20430;-70
2023/07/29 05:49:23;;;;;;;6.15;1.75;;;20.30;99.90;;;;;;4992197;28;20395;-70
2023/07/29 05:51:49;;;;;;;7.20;1.80;;;20.30;99.90;;;;;;4992404;28;20406;-70
2023/07/29 05:54:17;;;;;;;4.80;1.45;;;20.30;99.90;;;;;;4991521;28;20489;-70
2023/07/29 05:56:43;;;;;;;5.15;1.58;;;20.40;99.90;;;;;;4992333;28;20394;-70
2023/07/29 05:59:08;;;;;;;5.27;1.50;;;20.70;99.90;;;;;;4991722;28;20878;-70
2023/07/29 06:01:34;;;;;;;5.87;1.80;;;21.20;99.90;;;;;;4991085;28;20434;-70
2023/07/29 06:04:00;;;;;;;5.53;1.40;;;21.50;20.30;;;;;;4990021;28;20418;-69
2023/07/29 06:06:26;;;;;;;5.50;1.50;;;21.80;1.00;;;;;;4984013;28;20418;-69
2023/07/29 06:08:51;;;;;;;6.70;1.80;;;21.90;1.00;;;;;;4988847;28;20533;-69
2023/07/29 06:11:17;;;;;;;5.20;1.40;;;21.90;1.00;;;;;;4989661;28;20461;-69
2023/07/29 06:13:42;;;;;;;5.60;1.30;;;22.20;1.00;;;;;;4980930;28;20931;-71
2023/07/29 06:16:08;;;;;;;4.97;1.37;;;22.30;1.00;;;;;;4987383;28;20497;-70
2023/07/29 06:18:33;;;;;;;6.73;1.47;;;22.80;1.00;;;;;;4988460;28;20430;-70
2023/07/29 06:20:59;;;;;;;5.53;1.60;;;22.90;1.00;;;;;;4972542;28;20510;-70
2023/07/29 06:23:24;;;;;;;6.07;1.60;;;22.70;1.00;;;;;;4984900;28;20910;-70
2023/07/29 06:25:50;;;;;;;5.17;1.20;;;22.50;1.00;;;;;;4978925;28;21021;-70
2023/07/29 06:28:16;;;;;;;5.80;1.40;;;22.30;1.00;;;;;;4980452;28;20431;-70
2023/07/29 06:30:42;;;;;;;5.50;1.50;;;22.10;1.00;;;;;;4974364;28;20439;-70
2023/07/29 06:33:07;;;;;;;5.30;1.30;;;21.90;1.00;;;;;;4982080;28;20437;-70
2023/07/29 06:35:32;;;;;;;5.30;1.20;;;21.80;1.00;;;;;;4989172;28;20426;-70
2023/07/29 06:37:58;;;;;;;6.77;1.70;;;21.60;1.00;;;;;;4986040;28;20970;-69
2023/07/29 06:40:23;;;;;;;5.00;1.30;;;21.60;1.00;;;;;;4982073;28;20424;-70
2023/07/29 06:42:49;;;;;;;5.40;1.20;;;21.60;1.00;;;;;;4976571;28;20408;-70
2023/07/29 06:45:16;;;;;;;6.03;1.30;;;21.50;1.00;;;;;;4962813;28;20414;-70
2023/07/29 06:47:41;;;;;;;7.57;1.60;;;21.50;1.00;;;;;;4966959;28;20426;-70
2023/07/29 06:50:09;;;;;;;5.28;1.42;;;21.50;23.90;;;;;;4974111;28;20424;-69
2023/07/29 06:52:36;;;;;;;6.65;1.20;;;21.50;1.00;;;;;;4983577;28;20453;-70
2023/07/29 06:55:02;;;;;;;5.50;1.43;;;21.50;19.40;;;;;;4969606;28;20418;-70
2023/07/29 06:57:27;;;;;;;4.88;1.30;;;21.70;4.00;;;;;;4984422;28;20422;-70
2023/07/29 06:59:53;;;;;;;6.68;1.58;;;21.80;2.40;;;;;;4983816;28;20416;-70
2023/07/29 07:02:18;;;;;;;4.70;1.10;;;21.70;1.00;;;;;;4987966;28;20522;-69
2023/07/29 07:04:44;;;;;;;5.80;1.30;;;21.60;1.00;;;;;;4975488;28;20412;-69
2023/07/29 07:07:09;;;;;;;5.22;1.40;;;21.60;10.30;;;;;;4978546;28;20426;-69
2023/07/29 07:09:35;;;;;;;4.53;1.02;;;21.50;21.00;;;;;;4985986;28;20422;-69
2023/07/29 07:12:01;;;;;;;5.03;1.30;;;21.40;20.40;;;;;;4982439;28;20422;-70
2023/07/29 07:14:26;;;;;;;4.57;1.20;;;21.40;41.70;;;;;;4989908;28;20965;-69
2023/07/29 07:16:51;;;;;;;6.10;1.50;;;21.40;36.40;;;;;;4988496;28;20494;-69
2023/07/29 07:19:17;;;;;;;4.40;1.10;;;21.30;55.60;;;;;;4987176;28;20406;-69
2023/07/29 07:21:43;;;;;;;5.13;1.10;;;21.00;83.60;;;;;;4985421;28;20901;-69
2023/07/29 07:24:08;;;;;;;4.83;1.10;;;20.90;99.90;;;;;;4988863;28;20418;-69
2023/07/29 07:26:34;;;;;;;5.50;1.30;;;20.90;99.90;;;;;;4986036;28;20406;-69
2023/07/29 07:29:00;;;;;;;4.40;0.90;;;20.80;99.90;;;;;;4976783;28;20394;-69
2023/07/29 07:31:25;;;;;;;4.82;1.13;;;20.80;99.90;;;;;;4988782;28;20765;-69
2023/07/29 07:33:51;;;;;;;4.50;1.00;;;20.90;99.90;;;;;;4989127;28;20837;-69
2023/07/29 07:36:16;;;;;;;4.93;1.20;;;21.00;99.90;;;;;;4985012;28;20557;-69
2023/07/29 07:38:42;;;;;;;5.10;0.90;;;21.20;99.90;;;;;;4986263;28;21149;-69
2023/07/29 07:41:07;;;;;;;5.70;1.30;;;21.20;94.70;;;;;;4986493;28;20497;-70
2023/07/29 07:43:33;;;;;;;6.00;1.60;;;21.30;99.90;;;;;;4989115;28;20877;-70
2023/07/29 07:46:00;;;;;;;5.00;1.43;;;21.50;78.70;;;;;;4989687;28;20789;-69
2023/07/29 07:48:26;;;;;;;4.88;1.30;;;21.50;31.90;;;;;;4986236;28;20457;-69
2023/07/29 07:50:52;;;;;;;6.20;1.60;;;21.60;54.90;;;;;;4985085;28;20466;-70
2023/07/29 07:53:17;;;;;;;5.03;1.55;;;21.80;46.80;;;;;;4986262;28;20489;-70
2023/07/29 07:55:43;;;;;;;5.30;1.60;;;22.00;1.00;;;;;;4986935;28;20402;-70
2023/07/29 07:58:08;;;;;;;5.70;1.50;;;22.10;1.00;;;;;;4984344;28;20414;-70
2023/07/29 08:00:34;;;;;;;4.83;1.33;;;22.50;1.00;;;;;;4987032;28;20410;-70
2023/07/29 08:02:59;;;;;;;5.30;1.40;;;22.70;1.00;;;;;;4987809;28;20753;-70
2023/07/29 08:05:25;;;;;;;5.90;1.70;;;24.50;1.00;;;;;;4988819;28;20727;-70
2023/07/29 08:07:50;;;;;;;4.82;0.90;;;26.20;1.00;;;;;;4985924;28;20433;-70
2023/07/29 08:10:16;;;;;;;5.50;1.20;;;27.40;99.90;;;;;;4987978;28;20390;-70
2023/07/29 08:12:42;;;;;;;6.30;1.10;;;27.30;99.90;;;;;;4987036;28;20409;-70
2023/07/29 08:15:07;;;;;;;5.80;0.93;;;27.70;99.90;;;;;;4988420;28;21689;-70
2023/07/29 08:17:33;;;;;;;5.53;1.00;;;28.10;99.90;;;;;;4984464;28;20427;-70
2023/07/29 08:19:58;;;;;;;5.60;0.90;;;28.30;99.90;;;;;;4986689;28;20410;-70
2023/07/29 08:22:24;;;;;;;6.15;1.20;;;28.20;99.90;;;;;;4986598;28;20560;-76
2023/07/29 08:24:49;;;;;;;4.97;0.95;;;28.00;99.90;;;;;;4983285;28;20494;-77
2023/07/29 08:27:15;;;;;;;4.70;0.90;;;27.00;99.90;;;;;;4982186;28;20450;-77
2023/07/29 08:29:40;;;;;;;6.60;1.23;;;25.50;1.00;;;;;;4986632;28;20457;-76
2023/07/29 08:32:07;;;;;;;5.20;0.90;;;24.40;99.90;;;;;;4985099;28;20769;-69
2023/07/29 08:34:33;;;;;;;6.85;1.00;;;23.90;1.00;;;;;;4985205;28;20398;-70
2023/07/29 08:36:59;;;;;;;4.60;0.90;;;23.80;99.90;;;;;;4971195;28;20438;-69
2023/07/29 08:39:25;;;;;;;4.70;1.08;;;23.60;99.90;;;;;;4985159;28;20410;-69
2023/07/29 08:42:11;;;;;;;5.10;1.20;;;23.30;99.90;;;;;;4986841;28;20422;-69
2023/07/29 08:44:41;;;;;;;4.93;0.93;;;23.70;99.90;;;;;;4988257;28;20416;-69
2023/07/29 08:47:13;;;;;;;5.00;0.77;;;24.30;1.00;;;;;;4984287;28;20432;-69
2023/07/29 08:49:40;;;;;;;4.90;1.10;;;24.90;99.90;;;;;;4986229;28;20926;-69
2023/07/29 08:52:07;;;;;;;4.80;0.90;;;25.50;99.90;;;;;;4971996;28;20399;-70
2023/07/29 08:54:32;;;;;;;4.72;0.80;;;26.40;99.90;;;;;;4989200;28;20417;-70
2023/07/29 08:56:59;;;;;;;5.70;0.67;;;27.60;99.90;;;;;;4989733;28;20410;-70
2023/07/29 08:59:26;;;;;;;5.10;0.80;;;27.20;99.90;;;;;;4989418;28;20390;-70
2023/07/29 09:01:55;;;;;;;6.30;0.90;;;26.70;99.90;;;;;;4983562;28;20412;-70
2023/07/29 09:04:23;;;;;;;5.00;0.90;;;26.30;1.00;;;;;;4969974;28;20400;-70
2023/07/29 09:06:50;;;;;;;5.20;0.80;;;26.90;99.90;;;;;;4979167;28;20437;-70
2023/07/29 09:09:16;;;;;;;5.40;0.77;;;27.40;99.90;;;;;;4988819;28;20406;-70
2023/07/29 09:11:42;;;;;;;6.20;0.90;;;27.50;99.90;;;;;;4987973;28;20441;-70
2023/07/29 09:14:07;;;;;;;5.43;1.08;;;27.10;99.90;;;;;;4989200;28;20417;-68
2023/07/29 09:16:36;;;;;;;5.00;1.10;;;26.50;99.90;;;;;;4988904;28;20391;-68
2023/07/29 09:19:05;;;;;;;4.70;0.80;;;26.20;1.00;;;;;;4989013;28;20458;-68
2023/07/29 09:21:32;;;;;;;4.82;0.90;;;26.20;1.00;;;;;;4988661;28;20497;-68
2023/07/29 09:24:04;;;;;;;5.55;1.27;;;26.20;1.00;;;;;;4980760;28;20468;-69
2023/07/29 09:26:31;;;;;;;4.70;0.60;;;26.80;1.00;;;;;;4989266;28;20403;-69
2023/07/29 09:28:58;;;;;;;6.55;0.82;;;27.20;99.90;;;;;;4987107;28;20430;-69
2023/07/29 09:31:25;;;;;;;5.32;1.15;;;27.10;99.90;;;;;;4989068;28;20402;-69
2023/07/29 09:34:02;;;;;;;4.70;0.83;;;28.00;81.40;;;;;;4991070;28;20422;-70
2023/07/29 09:36:30;;;;;;;5.25;0.80;;;28.60;1.00;;;;;;4992578;28;20406;-70
2023/07/29 09:38:57;;;;;;;5.20;0.80;;;29.70;1.00;;;;;;4992297;28;20418;-70
2023/07/29 09:41:32;;;;;;;6.47;1.20;;;29.20;1.00;;;;;;4992369;28;20417;-70
2023/07/29 09:43:59;;;;;;;5.45;0.88;;;28.30;1.00;;;;;;4992616;28;20957;-70
2023/07/29 09:46:31;;;;;;;5.03;0.90;;;28.00;1.00;;;;;;4991991;28;20403;-69
2023/07/29 09:48:57;;;;;;;5.43;1.10;;;27.00;1.00;;;;;;4989006;28;20421;-69
2023/07/29 09:51:23;;;;;;;5.60;1.30;;;26.50;1.00;;;;;;4989102;28;20416;-69
2023/07/29 09:53:51;;;;;;;5.00;1.10;;;25.60;99.90;;;;;;4991023;28;20437;-69
2023/07/29 09:56:16;;;;;;;4.80;0.90;;;25.10;1.00;;;;;;4991320;28;20390;-69
2023/07/29 09:58:45;;;;;;;5.23;1.10;;;24.80;1.00;;;;;;4993018;28;20751;-69
2023/07/29 10:01:11;;;;;;;5.18;0.90;;;24.60;1.00;;;;;;4991665;28;20391;-69
2023/07/29 10:03:37;;;;;;;5.07;1.00;;;24.10;99.90;;;;;;4984522;28;20410;-69
2023/07/29 10:06:06;;;;;;;5.03;1.10;;;23.40;1.00;;;;;;4986053;28;20449;-69
2023/07/29 10:08:35;;;;;;;5.35;1.20;;;22.60;1.00;;;;;;4991919;28;20762;-69
2023/07/29 10:11:01;;;;;;;4.70;1.02;;;22.10;1.00;;;;;;4993176;28;20460;-69
2023/07/29 10:13:27;;;;;;;4.75;0.95;;;21.80;1.00;;;;;;4992168;28;20410;-68
2023/07/29 10:15:56;;;;;;;4.65;1.00;;;21.60;1.00;;;;;;4992083;28;20535;-69
2023/07/29 10:18:23;;;;;;;4.50;0.80;;;21.60;43.80;;;;;;4974291;28;20415;-69
2023/07/29 10:20:53;;;;;;;4.50;0.90;;;21.60;16.30;;;;;;4993008;28;20490;-69
2023/07/29 10:23:22;;;;;;;4.95;0.90;;;22.10;2.20;;;;;;4991539;28;20874;-69
2023/07/29 10:26:05;;;;;;;5.10;0.90;;;22.30;1.00;;;;;;4991951;28;20521;-69
2023/07/29 10:28:32;;;;;;;4.90;1.20;;;22.20;1.00;;;;;;4979469;28;20759;-69
2023/07/29 10:30:59;;;;;;;4.90;1.20;;;22.50;1.00;;;;;;4991073;28;20395;-70
2023/07/29 10:33:25;;;;;;;4.65;1.05;;;23.60;1.00;;;;;;4974355;28;20437;-69
2023/07/29 10:35:52;;;;;;;5.18;1.27;;;24.60;99.90;;;;;;4974209;28;20505;-70
2023/07/29 10:38:19;;;;;;;4.60;0.90;;;25.50;1.00;;;;;;4990315;28;20407;-69
2023/07/29 10:40:55;;;;;;;4.55;0.82;;;26.20;99.90;;;;;;4990607;28;20920;-70
2023/07/29 10:43:32;;;;;;;4.30;0.70;;;26.10;1.00;;;;;;4990172;28;20498;-70
2023/07/29 10:46:19;;;;;;;4.50;0.60;;;25.90;1.00;;;;;;4990927;28;20433;-70
2023/07/29 10:48:53;;;;;;;4.80;0.90;;;25.40;99.90;;;;;;4962304;28;20433;-69
2023/07/29 10:51:25;;;;;;;4.80;0.90;;;25.50;1.00;;;;;;4996721;28;20480;-70
2023/07/29 10:54:14;;;;;;;4.43;0.73;;;25.40;1.00;;;;;;4991284;28;20437;-70
2023/07/29 10:56:47;;;;;;;5.18;1.20;;;25.40;99.90;;;;;;4990389;28;20404;-70
2023/07/29 10:59:12;;;;;;;4.70;0.90;;;25.40;1.00;;;;;;4990693;28;20736;-70
2023/07/29 11:01:43;;;;;;;4.90;0.90;;;25.40;1.00;;;;;;4991226;28;20386;-70
2023/07/29 11:04:23;;;;;;;4.80;0.90;;;25.30;1.00;;;;;;4990896;28;20430;-70
2023/07/29 11:07:04;;;;;;;5.10;0.95;;;25.30;1.00;;;;;;4986942;28;20421;-70
2023/07/29 11:09:50;;;;;;;4.60;0.85;;;25.00;48.90;;;;;;4990025;28;20410;-70
2023/07/29 11:12:36;;;;;;;4.50;0.80;;;25.20;31.10;;;;;;4980367;28;20414;-70
2023/07/29 11:15:10;;;;;;;7.30;0.88;;;25.10;1.00;;;;;;4973351;28;20402;-70
2023/07/29 11:17:40;;;;;;;4.40;0.60;;;25.30;1.00;;;;;;4990627;28;20410;-70
2023/07/29 11:20:09;;;;;;;5.90;0.70;;;25.10;1.00;;;;;;4990606;28;20862;-70
2023/07/29 11:22:36;;;;;;;4.40;0.70;;;25.10;1.00;;;;;;4990803;28;20466;-70
2023/07/29 11:25:02;;;;;;;4.20;0.50;;;24.80;1.00;;;;;;4972929;28;21286;-70
2023/07/29 11:27:28;;;;;;;4.80;0.70;;;24.80;1.00;;;;;;4990907;28;20473;-70
2023/07/29 11:29:58;;;;;;;4.50;0.70;;;24.90;1.00;;;;;;4991338;28;20394;-70
2023/07/29 11:32:25;;;;;;;5.00;0.80;;;24.90;1.00;;;;;;4999442;28;20404;-70
2023/07/29 11:34:50;;;;;;;4.50;0.80;;;24.90;1.00;;;;;;5004880;28;20394;-70
2023/07/29 11:37:16;;;;;;;6.20;1.00;;;25.10;1.00;;;;;;5004502;28;20488;-69
2023/07/29 11:39:44;;;;;;;4.50;0.80;;;25.50;99.90;;;;;;4960434;28;20428;-70
2023/07/29 11:42:13;;;;;;;4.55;0.80;;;25.40;99.90;;;;;;4984339;28;20396;-70
2023/07/29 11:44:39;;;;;;;4.90;0.90;;;25.50;99.90;;;;;;4975903;28;20396;-70
2023/07/29 11:47:08;;;;;;;4.80;0.80;;;25.40;99.90;;;;;;4962226;28;20496;-70
2023/07/29 11:49:34;;;;;;;5.20;0.98;;;25.80;99.90;;;;;;4980457;28;20720;-71
2023/07/29 11:52:00;;;;;;;4.90;0.85;;;25.90;99.90;;;;;;4982847;28;20463;-70
2023/07/29 11:54:26;;;;;;;4.80;0.80;;;26.00;99.90;;;;;;4980137;28;20396;-70
2023/07/29 11:56:52;;;;;;;5.20;0.97;;;26.50;99.90;;;;;;4978784;28;20408;-71
2023/07/29 11:59:17;;;;;;;5.80;1.10;;;26.70;1.00;;;;;;4993841;28;20489;-70
2023/07/29 12:01:44;;;;;;;4.70;0.90;;;26.50;1.00;;;;;;4995437;28;20390;-69
2023/07/29 12:04:10;;;;;;;4.90;0.90;;;26.40;1.00;;;;;;4994316;28;20389;-69
2023/07/29 12:06:37;;;;;;;5.03;1.00;;;26.50;1.00;;;;;;4988558;28;20415;-70
2023/07/29 12:09:03;;;;;;;5.40;1.00;;;26.30;1.00;;;;;;4972703;28;20391;-70
2023/07/29 12:11:28;;;;;;;6.10;1.50;;;26.50;1.00;;;;;;4972473;28;20413;-70
2023/07/29 12:13:54;;;;;;;5.27;1.10;;;26.60;1.00;;;;;;4977982;28;20404;-70
2023/07/29 12:16:20;;;;;;;5.57;1.10;;;27.10;1.00;;;;;;4985920;28;20482;-69
2023/07/29 12:18:45;;;;;;;5.00;1.10;;;26.70;1.00;;;;;;4964437;28;20410;-70
2023/07/29 12:21:13;;;;;;;5.87;1.50;;;26.50;1.00;;;;;;4990559;28;20414;-70
2023/07/29 12:23:39;;;;;;;5.90;1.33;;;26.70;1.00;;;;;;4991603;28;20391;-70
2023/07/29 12:26:04;;;;;;;4.80;1.05;;;26.80;1.00;;;;;;4975758;28;20599;-70
2023/07/29 12:28:30;;;;;;;5.40;1.15;;;26.70;1.00;;;;;;4991829;28;20426;-70
2023/07/29 12:30:56;;;;;;;5.20;1.13;;;26.60;1.00;;;;;;4989323;28;20418;-70
2023/07/29 12:33:33;;;;;;;5.50;1.40;;;26.20;1.00;;;;;;4990780;28;20402;-69
2023/07/29 12:35:59;;;;;;;5.05;1.00;;;25.90;1.00;;;;;;4988625;28;20430;-70
2023/07/29 12:38:31;;;;;;;5.30;1.10;;;25.90;1.00;;;;;;4973544;28;20442;-70
2023/07/29 12:40:56;;;;;;;5.10;1.30;;;25.80;1.00;;;;;;4970691;28;20418;-70
2023/07/29 12:43:22;;;;;;;5.30;1.20;;;25.70;1.00;;;;;;4977046;28;20395;-70
2023/07/29 12:45:51;;;;;;;5.00;1.10;;;25.90;1.00;;;;;;4983103;28;20422;-69
2023/07/29 12:48:17;;;;;;;6.20;1.00;;;26.10;1.00;;;;;;4989675;28;20477;-69
2023/07/29 12:50:42;;;;;;;5.50;1.10;;;26.40;1.00;;;;;;4988623;28;20920;-70